createdAt,value
2019-03-28T00:02:15.443Z,11.00
2019-03-28T00:04:44.042Z,11.73
2019-03-28T00:07:13.090Z,12.87
2019-03-28T00:09:41.756Z,12.53
2019-03-28T00:12:10.316Z,12.20
2019-03-28T00:14:38.825Z,12.83
2019-03-28T00:17:07.645Z,11.97
2019-03-28T00:19:36.122Z,13.20
2019-03-28T00:22:05.868Z,12.40
2019-03-28T00:24:45.186Z,11.77
2019-03-28T00:27:13.743Z,12.40
2019-03-28T00:29:42.324Z,12.30
2019-03-28T00:32:11.117Z,10.33
2019-03-28T00:34:39.581Z,11.77
2019-03-28T00:37:09.006Z,11.63
2019-03-28T00:39:37.779Z,11.70
2019-03-28T00:42:06.467Z,11.97
2019-03-28T00:44:35.037Z,12.33
2019-03-28T00:47:03.935Z,11.53
2019-03-28T00:49:32.622Z,13.37
2019-03-28T00:52:01.408Z,12.33
2019-03-28T00:54:29.920Z,12.00
2019-03-28T00:56:58.573Z,12.20
2019-03-28T00:59:27.256Z,11.33
2019-03-28T01:01:56.088Z,12.40
2019-03-28T01:04:24.728Z,11.80
2019-03-28T01:06:53.231Z,11.60
2019-03-28T01:09:21.854Z,11.50
2019-03-28T01:11:50.377Z,11.60
2019-03-28T01:14:19.055Z,11.57
2019-03-28T01:16:47.730Z,11.50
2019-03-28T01:19:16.311Z,11.27
2019-03-28T01:21:45.012Z,10.77
2019-03-28T01:24:13.592Z,12.63
2019-03-28T01:26:42.378Z,11.37
2019-03-28T01:29:10.962Z,12.77
2019-03-28T01:31:39.643Z,13.37
2019-03-28T01:34:08.311Z,12.70
2019-03-28T01:36:37.018Z,13.17
2019-03-28T01:39:06.524Z,12.77
2019-03-28T01:41:35.203Z,13.63
2019-03-28T01:44:03.785Z,13.87
2019-03-28T01:46:32.479Z,13.40
2019-03-28T01:49:03.615Z,14.27
2019-03-28T01:51:31.491Z,14.17
2019-03-28T01:54:00.062Z,14.57
2019-03-28T01:56:28.865Z,14.13
2019-03-28T01:58:57.553Z,15.00
2019-03-28T02:01:26.097Z,13.73
2019-03-28T02:03:54.691Z,15.50
2019-03-28T02:06:23.386Z,15.63
2019-03-28T02:08:52.071Z,16.57
2019-03-28T02:11:20.553Z,17.43
2019-03-28T02:13:49.122Z,19.07
2019-03-28T02:16:17.806Z,18.03
2019-03-28T02:18:46.389Z,18.10
2019-03-28T02:21:14.974Z,19.23
2019-03-28T02:23:43.657Z,17.20
2019-03-28T02:26:12.236Z,19.13
2019-03-28T02:28:41.127Z,19.60
2019-03-28T02:31:10.016Z,18.90
2019-03-28T02:33:38.788Z,19.73
2019-03-28T02:36:07.489Z,20.67
2019-03-28T02:38:35.996Z,19.90
2019-03-28T02:41:05.064Z,20.03
2019-03-28T02:43:33.632Z,20.90
2019-03-28T02:46:02.229Z,22.00
2019-03-28T02:48:30.766Z,22.00
2019-03-28T02:50:59.229Z,24.03
2019-03-28T02:53:27.771Z,23.07
2019-03-28T02:55:56.353Z,21.60
2019-03-28T02:58:24.921Z,23.20
2019-03-28T03:00:53.721Z,23.70
2019-03-28T03:03:22.357Z,21.50
2019-03-28T03:05:50.882Z,22.50
2019-03-28T03:08:19.571Z,22.53
2019-03-28T03:10:48.102Z,23.50
2019-03-28T03:13:16.573Z,24.57
2019-03-28T03:15:45.124Z,23.77
2019-03-28T03:18:13.800Z,22.27
2019-03-28T03:20:43.543Z,21.37
2019-03-28T03:23:12.516Z,23.00
2019-03-28T03:25:41.155Z,24.20
2019-03-28T03:28:09.839Z,22.37
2019-03-28T03:30:38.544Z,22.47
2019-03-28T03:33:08.953Z,22.13
2019-03-28T03:35:37.536Z,22.07
2019-03-28T03:38:06.183Z,22.37
2019-03-28T03:40:34.871Z,21.57
2019-03-28T03:43:03.524Z,21.27
2019-03-28T03:45:32.200Z,23.03
2019-03-28T03:48:00.848Z,20.53
2019-03-28T03:50:29.844Z,21.23
2019-03-28T03:52:58.531Z,21.30
2019-03-28T03:55:27.231Z,20.40
2019-03-28T03:57:56.034Z,21.27
2019-03-28T04:00:35.766Z,19.93
2019-03-28T04:03:04.452Z,20.57
2019-03-28T04:05:33.236Z,21.47
2019-03-28T04:08:01.797Z,19.50
2019-03-28T04:10:30.401Z,22.00
2019-03-28T04:12:58.945Z,21.23
2019-03-28T04:15:27.456Z,20.43
2019-03-28T04:17:55.928Z,20.43
2019-03-28T04:20:25.070Z,20.77
2019-03-28T04:22:53.915Z,20.67
2019-03-28T04:25:22.615Z,20.77
2019-03-28T04:27:51.124Z,21.87
2019-03-28T04:30:19.777Z,22.07
2019-03-28T04:32:48.306Z,21.67
2019-03-28T04:35:16.832Z,21.27
2019-03-28T04:37:45.268Z,21.83
2019-03-28T04:40:13.802Z,21.73
2019-03-28T04:42:45.639Z,22.37
2019-03-28T04:45:12.608Z,21.53
2019-03-28T04:47:41.091Z,22.57
2019-03-28T04:50:10.315Z,23.13
2019-03-28T04:52:39.130Z,22.00
2019-03-28T04:55:07.642Z,22.87
2019-03-28T04:57:36.168Z,23.40
2019-03-28T05:00:06.101Z,22.50
2019-03-28T05:02:34.579Z,22.53
2019-03-28T05:05:03.164Z,22.80
2019-03-28T05:07:31.888Z,23.97
2019-03-28T05:10:00.404Z,23.13
2019-03-28T05:12:28.963Z,22.67
2019-03-28T05:14:57.445Z,24.37
2019-03-28T05:17:26.008Z,23.70
2019-03-28T05:19:54.591Z,22.57
2019-03-28T05:22:23.275Z,23.90
2019-03-28T05:24:51.857Z,24.83
2019-03-28T05:27:20.440Z,23.07
2019-03-28T05:29:49.228Z,23.83
2019-03-28T05:32:17.975Z,24.03
2019-03-28T05:34:46.599Z,23.73
2019-03-28T05:37:15.280Z,24.07
2019-03-28T05:39:43.863Z,25.23
2019-03-28T05:42:12.362Z,26.37
2019-03-28T05:44:41.132Z,25.50
2019-03-28T05:47:09.717Z,25.53
2019-03-28T05:49:38.398Z,26.37
2019-03-28T05:52:06.934Z,25.63
2019-03-28T05:54:35.418Z,27.27
2019-03-28T05:57:03.927Z,27.13
2019-03-28T05:59:32.447Z,27.50
2019-03-28T06:02:01.001Z,25.93
2019-03-28T06:04:29.682Z,26.90
2019-03-28T06:06:59.128Z,27.10
2019-03-28T06:09:27.768Z,26.87
2019-03-28T06:11:56.351Z,27.43
2019-03-28T06:14:24.933Z,27.20
2019-03-28T06:16:53.515Z,40.67
2019-03-28T06:19:22.199Z,30.23
2019-03-28T06:21:50.689Z,30.87
2019-03-28T06:24:19.201Z,28.27
2019-03-28T06:26:50.125Z,29.33
2019-03-28T06:29:24.231Z,28.63
2019-03-28T06:31:55.340Z,27.83
2019-03-28T06:34:19.249Z,32.93
2019-03-28T06:36:47.787Z,29.37
2019-03-28T06:39:16.494Z,30.53
2019-03-28T06:41:45.363Z,30.03
2019-03-28T06:44:14.224Z,27.73
2019-03-28T06:46:42.778Z,29.97
2019-03-28T06:49:11.308Z,30.47
2019-03-28T06:51:39.784Z,30.30
2019-03-28T06:54:08.403Z,30.00
2019-03-28T06:56:36.975Z,28.97
2019-03-28T06:59:05.661Z,29.50
2019-03-28T07:01:34.209Z,29.03
2019-03-28T07:04:03.064Z,29.13
2019-03-28T07:06:31.769Z,29.73
2019-03-28T07:09:00.319Z,29.27
2019-03-28T07:11:28.836Z,30.43
2019-03-28T07:13:57.457Z,28.90
2019-03-28T07:16:26.354Z,33.30
2019-03-28T07:18:54.960Z,29.47
2019-03-28T07:21:23.723Z,28.17
2019-03-28T07:23:52.253Z,29.83
2019-03-28T07:26:20.756Z,30.73
2019-03-28T07:28:49.343Z,30.40
2019-03-28T07:31:17.985Z,30.07
2019-03-28T07:33:46.573Z,28.77
2019-03-28T07:36:15.209Z,27.77
2019-03-28T07:38:43.781Z,31.20
2019-03-28T07:41:12.476Z,28.20
2019-03-28T07:43:40.964Z,31.17
2019-03-28T07:46:09.472Z,28.37
2019-03-28T07:48:38.131Z,27.33
2019-03-28T07:51:06.800Z,25.47
2019-03-28T07:53:35.393Z,26.73
2019-03-28T07:56:04.072Z,24.03
2019-03-28T07:58:32.860Z,25.40
2019-03-28T08:01:01.545Z,26.27
2019-03-28T08:03:30.143Z,27.00
2019-03-28T08:05:58.810Z,26.03
2019-03-28T08:08:38.263Z,28.07
2019-03-28T08:10:57.622Z,25.90
2019-03-28T08:13:26.299Z,26.73
2019-03-28T08:15:55.088Z,34.43
2019-03-28T08:18:23.925Z,41.87
2019-03-28T08:20:52.664Z,28.93
2019-03-28T08:23:21.223Z,25.73
2019-03-28T08:25:50.133Z,25.40
2019-03-28T08:28:18.917Z,26.07
2019-03-28T08:30:47.605Z,25.90
2019-03-28T08:33:16.273Z,25.90
2019-03-28T08:35:44.872Z,25.00
2019-03-28T08:38:13.453Z,23.70
2019-03-28T08:40:42.935Z,25.20
2019-03-28T08:43:11.537Z,25.07
2019-03-28T08:45:40.220Z,23.23
2019-03-28T08:48:08.802Z,23.57
2019-03-28T08:50:37.488Z,24.53
2019-03-28T08:53:06.181Z,22.60
2019-03-28T08:55:34.965Z,23.57
2019-03-28T08:58:03.657Z,21.20
2019-03-28T09:00:39.028Z,16.97
2019-03-28T09:03:02.650Z,17.53
2019-03-28T09:05:31.337Z,18.63
2019-03-28T09:07:59.919Z,17.33
2019-03-28T09:10:28.866Z,17.83
2019-03-28T09:12:57.919Z,16.13
2019-03-28T09:15:26.700Z,15.43
2019-03-28T09:17:55.482Z,16.30
2019-03-28T09:20:24.166Z,20.57
2019-03-28T09:22:52.852Z,16.23
2019-03-28T09:25:21.740Z,15.20
2019-03-28T09:27:51.706Z,14.83
2019-03-28T09:30:46.795Z,15.40
2019-03-28T09:33:03.042Z,15.73
2019-03-28T09:35:31.855Z,15.73
2019-03-28T09:38:00.626Z,15.80
2019-03-28T09:40:29.314Z,17.57
2019-03-28T09:42:58.302Z,12.43
2019-03-28T09:45:26.886Z,12.47
2019-03-28T09:47:55.559Z,13.57
2019-03-28T09:50:25.180Z,14.40
2019-03-28T09:52:54.268Z,13.20
2019-03-28T09:55:23.056Z,14.37
2019-03-28T09:57:51.741Z,20.00
2019-03-28T10:00:20.525Z,22.87
2019-03-28T10:02:49.315Z,16.00
2019-03-28T10:05:17.993Z,17.30
2019-03-28T10:07:47.003Z,14.30
2019-03-28T10:10:15.772Z,12.57
2019-03-28T10:12:44.370Z,13.33
2019-03-28T10:15:12.933Z,14.40
2019-03-28T10:17:42.543Z,15.80
2019-03-28T10:20:11.430Z,18.97
2019-03-28T10:22:40.139Z,18.43
2019-03-28T10:25:12.191Z,15.83
2019-03-28T10:27:39.020Z,15.97
2019-03-28T10:30:09.954Z,15.60
2019-03-28T10:32:38.745Z,17.27
2019-03-28T10:35:07.535Z,18.77
2019-03-28T10:37:36.116Z,18.43
2019-03-28T10:40:07.419Z,18.40
2019-03-28T10:42:36.042Z,18.27
2019-03-28T10:45:06.533Z,16.93
2019-03-28T10:47:35.152Z,17.43
2019-03-28T10:50:04.584Z,16.87
2019-03-28T10:52:33.130Z,19.33
2019-03-28T10:55:01.825Z,15.63
2019-03-28T10:57:32.028Z,10.77
2019-03-28T11:00:00.828Z,10.63
2019-03-28T11:02:29.503Z,12.97
2019-03-28T11:04:58.199Z,17.67
2019-03-28T11:07:26.997Z,15.67
2019-03-28T11:09:55.874Z,15.73
2019-03-28T11:12:24.565Z,14.70
2019-03-28T11:14:53.346Z,15.43
2019-03-28T11:17:22.137Z,17.05
2019-03-28T11:19:50.713Z,15.27
2019-03-28T11:22:19.509Z,14.50
2019-03-28T11:24:48.103Z,14.33
2019-03-28T11:27:16.852Z,13.03
2019-03-28T11:29:45.658Z,14.93
2019-03-28T11:32:14.445Z,14.70
2019-03-28T11:34:43.029Z,12.60
2019-03-28T11:37:25.469Z,13.87
2019-03-28T11:39:41.934Z,14.03
2019-03-28T11:42:10.616Z,13.77
2019-03-28T11:44:39.403Z,14.45
2019-03-28T11:47:08.190Z,14.70
2019-03-28T11:49:36.770Z,13.20
2019-03-28T11:52:05.461Z,13.43
2019-03-28T11:54:34.144Z,12.20
2019-03-28T11:57:02.825Z,12.20
2019-03-28T11:59:31.614Z,12.87
2019-03-28T12:02:18.361Z,12.37
2019-03-28T12:04:30.517Z,11.63
2019-03-28T12:06:59.207Z,12.90
2019-03-28T12:09:27.900Z,13.40
2019-03-28T12:11:56.474Z,12.23
2019-03-28T12:14:25.274Z,13.10
2019-03-28T12:16:54.353Z,11.30
2019-03-28T12:19:23.136Z,12.47
2019-03-28T12:21:51.930Z,12.03
2019-03-28T12:24:20.717Z,11.00
2019-03-28T12:26:49.297Z,11.77
2019-03-28T12:29:17.979Z,12.80
2019-03-28T12:31:46.568Z,12.57
2019-03-28T12:34:15.157Z,12.07
2019-03-28T12:36:44.612Z,12.80
2019-03-28T12:39:15.625Z,12.87
2019-03-28T12:41:44.172Z,12.73
2019-03-28T12:44:12.855Z,13.70
2019-03-28T12:46:41.635Z,11.23
2019-03-28T12:49:10.330Z,10.10
2019-03-28T12:51:39.009Z,12.03
2019-03-28T12:54:07.811Z,10.53
2019-03-28T12:56:36.470Z,10.83
2019-03-28T12:59:05.176Z,9.90
2019-03-28T13:01:34.055Z,10.33
2019-03-28T13:04:02.837Z,10.40
2019-03-28T13:06:31.522Z,13.97
2019-03-28T13:09:00.308Z,13.67
2019-03-28T13:11:28.892Z,12.47
2019-03-28T13:13:57.575Z,11.43
2019-03-28T13:16:26.229Z,11.63
2019-03-28T13:18:55.046Z,10.63
2019-03-28T13:21:23.629Z,11.10
2019-03-28T13:23:52.416Z,10.27
2019-03-28T13:26:21.105Z,10.37
2019-03-28T13:28:49.696Z,11.30
2019-03-28T13:31:18.374Z,11.83
2019-03-28T13:33:47.155Z,14.40
2019-03-28T13:36:15.945Z,12.83
2019-03-28T13:38:44.738Z,10.27
2019-03-28T13:41:13.392Z,8.27
2019-03-28T13:43:42.322Z,6.00
2019-03-28T13:46:11.088Z,6.27
2019-03-28T13:48:39.670Z,7.90
2019-03-28T13:51:08.561Z,11.03
2019-03-28T13:53:39.810Z,10.40
2019-03-28T13:56:07.570Z,11.67
2019-03-28T13:58:36.471Z,11.30
2019-03-28T14:01:05.145Z,11.40
2019-03-28T14:03:34.046Z,10.73
2019-03-28T14:06:04.361Z,8.57
2019-03-28T14:08:33.040Z,10.07
2019-03-28T14:11:01.620Z,9.43
2019-03-28T14:13:30.614Z,13.57
2019-03-28T14:15:59.397Z,15.17
2019-03-28T14:18:28.290Z,16.90
2019-03-28T14:20:57.112Z,16.60
2019-03-28T14:23:25.862Z,16.33
2019-03-28T14:25:54.640Z,16.23
2019-03-28T14:28:23.231Z,16.23
2019-03-28T14:30:52.019Z,15.93
2019-03-28T14:33:20.811Z,16.67
2019-03-28T14:35:49.497Z,16.53
2019-03-28T14:38:18.076Z,16.60
2019-03-28T14:40:46.867Z,15.80
2019-03-28T14:43:15.440Z,16.17
2019-03-28T14:45:44.339Z,15.00
2019-03-28T14:48:12.913Z,15.43
2019-03-28T14:50:41.675Z,15.80
2019-03-28T14:53:10.490Z,16.33
2019-03-28T14:55:39.070Z,17.07
2019-03-28T14:58:07.878Z,17.40
2019-03-28T15:00:46.684Z,16.80
2019-03-28T15:03:25.508Z,16.00
2019-03-28T15:05:45.173Z,15.80
2019-03-28T15:08:13.863Z,17.70
2019-03-28T15:10:42.646Z,16.00
2019-03-28T15:13:11.332Z,13.83
2019-03-28T15:15:40.228Z,13.37
2019-03-28T15:18:08.907Z,13.93
2019-03-28T15:20:37.695Z,13.33
2019-03-28T15:23:06.388Z,20.13
2019-03-28T15:25:35.372Z,15.90
2019-03-28T15:28:04.155Z,14.30
2019-03-28T15:30:32.828Z,13.30
2019-03-28T15:33:01.769Z,16.57
2019-03-28T15:35:30.415Z,15.20
2019-03-28T15:37:59.101Z,14.47
2019-03-28T15:40:27.787Z,14.40
2019-03-28T15:42:56.568Z,14.93
2019-03-28T15:45:25.159Z,15.10
2019-03-28T15:47:54.156Z,13.80
2019-03-28T15:50:22.828Z,13.23
2019-03-28T15:52:51.650Z,13.80
2019-03-28T15:55:20.301Z,11.67
2019-03-28T15:57:48.986Z,12.97
2019-03-28T16:00:17.973Z,11.13
2019-03-28T16:02:46.764Z,13.00
2019-03-28T16:05:15.333Z,14.33
2019-03-28T16:07:44.132Z,13.83
2019-03-28T16:10:14.803Z,14.67
2019-03-28T16:12:43.356Z,17.33
2019-03-28T16:15:12.030Z,14.90
2019-03-28T16:17:40.710Z,15.70
2019-03-28T16:20:09.909Z,15.37
2019-03-28T16:22:38.923Z,18.87
2019-03-28T16:25:08.105Z,15.33
2019-03-28T16:27:36.781Z,15.80
2019-03-28T16:30:09.755Z,15.37
2019-03-28T16:32:38.350Z,14.83
2019-03-28T16:35:07.239Z,16.23
2019-03-28T16:37:35.822Z,18.60
2019-03-28T16:40:05.225Z,18.10
2019-03-28T16:42:34.119Z,18.67
2019-03-28T16:45:03.109Z,16.93
2019-03-28T16:47:32.100Z,17.00
2019-03-28T16:50:01.916Z,18.10
2019-03-28T16:52:30.696Z,15.13
2019-03-28T16:54:59.379Z,17.00
2019-03-28T16:57:28.068Z,15.17
2019-03-28T16:59:56.758Z,16.03
2019-03-28T17:02:25.435Z,16.57
2019-03-28T17:04:54.284Z,16.03
2019-03-28T17:07:23.012Z,16.20
2019-03-28T17:09:52.016Z,17.43
2019-03-28T17:12:20.580Z,16.20
2019-03-28T17:14:49.154Z,17.17
2019-03-28T17:17:17.743Z,15.33
2019-03-28T17:19:46.311Z,15.93
2019-03-28T17:22:15.009Z,15.43
2019-03-28T17:24:43.696Z,15.10
2019-03-28T17:27:12.382Z,16.00
2019-03-28T17:29:41.271Z,18.37
2019-03-28T17:32:10.944Z,17.30
2019-03-28T17:34:39.666Z,14.67
2019-03-28T17:37:08.342Z,17.60
2019-03-28T17:39:36.935Z,21.23
2019-03-28T17:42:06.309Z,14.10
2019-03-28T17:44:35.329Z,21.97
2019-03-28T17:47:04.013Z,17.97
2019-03-28T17:49:32.902Z,17.83
2019-03-28T17:52:04.360Z,18.97
2019-03-28T17:54:33.132Z,22.10
2019-03-28T17:57:01.815Z,18.83
2019-03-28T17:59:30.824Z,19.90
2019-03-28T18:01:59.702Z,16.83
2019-03-28T18:04:28.385Z,16.40
2019-03-28T18:06:57.209Z,21.20
2019-03-28T18:09:26.145Z,16.90
2019-03-28T18:11:54.844Z,16.87
2019-03-28T18:14:23.750Z,15.67
2019-03-28T18:16:52.725Z,15.30
2019-03-28T18:19:26.635Z,14.23
2019-03-28T18:22:03.842Z,15.83
2019-03-28T18:24:32.136Z,17.93
2019-03-28T18:27:01.689Z,16.43
2019-03-28T18:29:31.602Z,15.63
2019-03-28T18:32:00.501Z,14.07
2019-03-28T18:34:29.304Z,15.77
2019-03-28T18:36:57.978Z,16.47
2019-03-28T18:39:26.716Z,29.07
2019-03-28T18:41:56.661Z,14.63
2019-03-28T18:44:25.331Z,17.20
2019-03-28T18:46:53.837Z,15.73
2019-03-28T18:49:22.528Z,17.60
2019-03-28T18:51:51.091Z,40.73
2019-03-28T18:54:20.393Z,18.37
2019-03-28T18:56:50.764Z,13.70
2019-03-28T18:59:19.467Z,15.57
2019-03-28T19:01:48.126Z,15.53
2019-03-28T19:04:16.882Z,13.67
2019-03-28T19:06:45.465Z,13.23
2019-03-28T19:09:14.150Z,12.50
2019-03-28T19:11:42.837Z,13.97
2019-03-28T19:14:11.518Z,13.30
2019-03-28T19:16:40.622Z,15.77
2019-03-28T19:19:10.528Z,13.23
2019-03-28T19:21:39.110Z,14.80
2019-03-28T19:24:07.911Z,14.63
2019-03-28T19:26:36.581Z,13.33
2019-03-28T19:29:05.272Z,14.33
2019-03-28T19:31:34.466Z,13.80
2019-03-28T19:34:03.372Z,15.70
2019-03-28T19:36:31.922Z,14.27
2019-03-28T19:39:00.924Z,16.27
2019-03-28T19:41:31.837Z,15.37
2019-03-28T19:44:00.751Z,16.27
2019-03-28T19:46:29.667Z,17.87
2019-03-28T19:48:58.208Z,18.97
2019-03-28T19:51:28.385Z,17.83
2019-03-28T19:53:57.333Z,17.73
2019-03-28T19:56:26.023Z,16.20
2019-03-28T19:58:57.152Z,16.50
2019-03-28T20:01:25.024Z,16.57
2019-03-28T20:03:55.047Z,18.00
2019-03-28T20:06:24.417Z,20.30
2019-03-28T20:08:53.595Z,16.83
2019-03-28T20:11:22.326Z,17.30
2019-03-28T20:13:51.110Z,17.00
2019-03-28T20:16:19.896Z,20.17
2019-03-28T20:18:48.487Z,19.30
2019-03-28T20:21:17.085Z,17.93
2019-03-28T20:23:45.644Z,18.57
2019-03-28T20:26:15.907Z,18.83
2019-03-28T20:28:46.221Z,18.67
2019-03-28T20:31:14.867Z,17.30
2019-03-28T20:33:43.650Z,19.87
2019-03-28T20:36:36.268Z,18.90
2019-03-28T20:38:44.666Z,20.33
2019-03-28T20:41:13.400Z,22.57
2019-03-28T20:43:42.092Z,16.63
2019-03-28T20:46:11.179Z,18.73
2019-03-28T20:48:39.931Z,23.87
2019-03-28T20:51:08.648Z,18.83
2019-03-28T20:53:37.940Z,20.33
2019-03-28T20:56:06.940Z,18.87
2019-03-28T20:58:35.733Z,17.77
2019-03-28T21:01:05.059Z,18.43
2019-03-28T21:03:33.920Z,25.07
2019-03-28T21:06:14.692Z,19.47
2019-03-28T21:08:33.030Z,22.20
2019-03-28T21:11:01.816Z,18.53
2019-03-28T21:13:31.169Z,19.20
2019-03-28T21:16:00.228Z,24.90
2019-03-28T21:18:28.795Z,28.07
2019-03-28T21:20:58.814Z,21.47
2019-03-28T21:23:27.431Z,20.43
2019-03-28T21:25:59.352Z,19.03
2019-03-28T21:28:28.067Z,20.23
2019-03-28T21:30:59.007Z,21.60
2019-03-28T21:33:27.279Z,20.90
2019-03-28T21:35:55.881Z,19.40
2019-03-28T21:38:24.625Z,20.20
2019-03-28T21:40:53.811Z,18.70
2019-03-28T21:43:22.496Z,19.73
2019-03-28T21:45:51.298Z,20.60
2019-03-28T21:48:20.074Z,20.03
2019-03-28T21:50:48.974Z,17.60
2019-03-28T21:53:20.093Z,19.43
2019-03-28T21:55:55.446Z,16.77
2019-03-28T21:58:21.804Z,19.13
2019-03-28T22:00:52.693Z,20.43
2019-03-28T22:03:21.803Z,20.17
2019-03-28T22:05:51.419Z,26.43
2019-03-28T22:08:20.181Z,28.67
2019-03-28T22:10:48.981Z,21.43
2019-03-28T22:13:17.565Z,20.00
2019-03-28T22:15:46.152Z,22.37
2019-03-28T22:18:14.979Z,21.30
2019-03-28T22:20:44.086Z,20.73
2019-03-28T22:23:13.676Z,21.87
2019-03-28T22:25:42.627Z,21.97
2019-03-28T22:28:11.309Z,20.67
2019-03-28T22:30:39.891Z,22.83
2019-03-28T22:33:08.780Z,20.87
2019-03-28T22:35:37.571Z,19.37
2019-03-28T22:38:06.256Z,20.70
2019-03-28T22:40:34.840Z,21.87
2019-03-28T22:43:03.427Z,21.07
2019-03-28T22:45:32.109Z,22.20
2019-03-28T22:48:10.518Z,24.57
2019-03-28T22:50:30.973Z,23.67
2019-03-28T22:52:59.661Z,22.00
2019-03-28T22:55:28.139Z,24.00
2019-03-28T22:57:58.253Z,22.03
2019-03-28T23:00:40.451Z,23.20
2019-03-28T23:03:09.140Z,22.63
2019-03-28T23:05:37.760Z,23.70
2019-03-28T23:08:06.376Z,25.23
2019-03-28T23:10:35.444Z,23.20
2019-03-28T23:13:04.016Z,23.27
2019-03-28T23:15:32.673Z,23.87
2019-03-28T23:18:01.212Z,27.47
2019-03-28T23:20:29.689Z,25.50
2019-03-28T23:22:59.802Z,24.47
2019-03-28T23:25:28.569Z,25.47
2019-03-28T23:27:57.085Z,24.17
2019-03-28T23:30:25.719Z,24.10
2019-03-28T23:32:54.219Z,26.33
2019-03-28T23:35:22.696Z,26.33
2019-03-28T23:37:51.376Z,24.47
2019-03-28T23:40:19.911Z,24.17
2019-03-28T23:42:48.468Z,25.60
2019-03-28T23:45:17.020Z,26.03
2019-03-28T23:47:45.702Z,25.37
2019-03-28T23:50:14.385Z,26.17
2019-03-28T23:52:43.099Z,26.17
2019-03-28T23:55:11.746Z,27.57
2019-03-28T23:57:40.337Z,27.67
